createdAt,value
2023-03-01T13:00:23.560Z,100029.44
2023-03-01T13:02:56.616Z,99990.06
2023-03-01T13:05:39.386Z,100022.44
2023-03-01T13:08:05.795Z,100019.81
2023-03-01T13:10:39.699Z,100011.69
2023-03-01T13:13:27.253Z,100029.44
2023-03-01T13:15:54.749Z,100028.31
2023-03-01T13:18:22.983Z,100024.03
2023-03-01T13:20:51.606Z,100022.75
2023-03-01T13:23:23.919Z,100030.69
2023-03-01T13:26:15.373Z,100032.81
2023-03-01T13:28:44.995Z,100029.56
2023-03-01T13:31:31.479Z,100028.97
2023-03-01T13:33:59.647Z,100015.41
2023-03-01T13:36:29.216Z,100016.28
2023-03-01T13:38:59.751Z,100011.31
2023-03-01T13:41:44.648Z,100004.06
2023-03-01T13:44:14.297Z,99991.56
2023-03-01T13:46:41.064Z,100001.75
2023-03-01T13:49:14.344Z,99993.09
2023-03-01T13:51:40.801Z,99991.06
2023-03-01T13:54:12.573Z,100000.03
2023-03-01T13:56:39.450Z,99989.00
2023-03-01T13:59:14.303Z,99975.69
2023-03-01T14:01:43.647Z,99961.75
2023-03-01T14:04:29.095Z,99975.53
2023-03-01T14:07:18.170Z,99966.53
2023-03-01T14:09:46.402Z,99963.44
2023-03-01T14:12:22.318Z,99970.44
2023-03-01T14:14:55.583Z,99948.13
2023-03-01T14:17:31.662Z,99963.84
2023-03-01T14:20:05.417Z,99965.84
2023-03-01T14:22:34.858Z,99958.47
2023-03-01T14:25:06.373Z,99966.03
2023-03-01T14:27:42.813Z,99961.84
2023-03-01T14:30:16.341Z,99967.41
2023-03-01T14:32:42.825Z,99963.88
2023-03-01T14:35:32.473Z,99965.81
2023-03-01T14:37:59.401Z,99966.28
2023-03-01T14:40:31.887Z,99961.16
2023-03-01T14:43:00.708Z,99962.81
2023-03-01T14:45:30.043Z,99963.66
2023-03-01T14:48:00.614Z,99953.78
2023-03-01T14:50:30.085Z,99949.97
2023-03-01T14:53:03.025Z,99960.28
2023-03-01T14:55:36.476Z,99938.53
2023-03-01T14:58:10.045Z,99946.63
2023-03-01T15:00:36.977Z,99942.28
2023-03-01T15:03:14.317Z,99944.69
2023-03-01T15:05:42.994Z,99957.34
2023-03-01T15:08:19.280Z,99943.97
2023-03-01T15:10:58.862Z,99947.16
2023-03-01T15:13:29.865Z,99940.97
2023-03-01T15:16:08.309Z,99943.28
2023-03-01T15:18:35.560Z,99914.00
2023-03-01T15:21:25.861Z,99914.34
2023-03-01T15:23:58.207Z,99926.09
2023-03-01T15:26:40.511Z,99918.72
2023-03-01T15:29:19.011Z,99927.00
2023-03-01T15:32:04.730Z,99923.81
2023-03-01T15:34:33.444Z,99922.19
2023-03-01T15:37:02.256Z,99934.84
2023-03-01T15:39:40.361Z,99921.19
2023-03-01T15:42:12.323Z,99927.84
2023-03-01T15:44:44.361Z,99926.31
2023-03-01T15:47:30.731Z,99933.03
2023-03-01T15:49:59.095Z,99933.88
2023-03-01T15:52:41.929Z,99922.53
2023-03-01T15:55:20.280Z,99909.75
2023-03-01T15:57:47.039Z,99939.97
2023-03-01T16:00:14.538Z,99936.13
2023-03-01T16:02:42.274Z,99934.59
2023-03-01T16:05:30.490Z,99941.34
2023-03-01T16:07:57.609Z,99939.53
2023-03-01T16:10:25.070Z,99939.13
2023-03-01T16:12:53.442Z,99943.50
2023-03-01T16:15:29.416Z,99924.75
2023-03-01T16:17:58.990Z,99927.53
2023-03-01T16:20:29.163Z,99936.91
2023-03-01T16:23:07.393Z,99932.81
2023-03-01T16:25:34.524Z,99950.00
2023-03-01T16:28:05.703Z,99943.00
2023-03-01T16:30:32.609Z,99939.94
2023-03-01T16:32:59.439Z,99938.84
2023-03-01T16:35:26.254Z,99936.09
2023-03-01T16:37:54.831Z,99927.25
2023-03-01T16:40:27.920Z,99938.97
2023-03-01T16:43:01.071Z,99930.75
2023-03-01T16:45:29.871Z,99928.50
2023-03-01T16:47:56.454Z,99934.09
2023-03-01T16:50:23.570Z,99941.97
2023-03-01T16:52:50.212Z,99945.19
2023-03-01T16:55:16.795Z,99925.69
2023-03-01T16:57:43.444Z,99941.44
2023-03-01T17:00:12.124Z,99949.66
2023-03-01T17:02:38.831Z,99937.94
2023-03-01T17:05:06.684Z,99937.63
2023-03-01T17:07:36.904Z,99944.75
2023-03-01T17:10:05.709Z,99948.34
2023-03-01T17:12:33.034Z,99942.09
2023-03-01T17:14:59.554Z,99935.16
2023-03-01T17:17:26.504Z,99941.81
2023-03-01T17:19:53.872Z,99947.00
2023-03-01T17:22:20.435Z,99940.78
2023-03-01T17:24:47.029Z,99939.25
2023-03-01T17:27:14.045Z,99938.16
2023-03-01T17:29:40.912Z,99940.56
2023-03-01T17:32:07.850Z,99939.03
2023-03-01T17:34:34.802Z,99928.16
2023-03-01T17:37:01.384Z,99925.84
2023-03-01T17:39:32.287Z,99941.16
2023-03-01T17:41:59.173Z,99929.50
2023-03-01T17:44:25.922Z,99955.72
2023-03-01T17:46:52.462Z,99969.47
2023-03-01T17:49:18.971Z,99957.38
2023-03-01T17:51:45.612Z,99962.47
2023-03-01T17:54:12.287Z,99953.91
2023-03-01T17:56:38.907Z,99938.66
2023-03-01T17:59:06.229Z,99931.66
2023-03-01T18:01:33.781Z,99959.03
2023-03-01T18:04:00.709Z,99958.31
2023-03-01T18:06:28.702Z,99960.28
2023-03-01T18:08:56.457Z,99981.03
2023-03-01T18:11:24.354Z,99973.22
2023-03-01T18:13:51.383Z,99974.78
2023-03-01T18:16:19.557Z,99957.97
2023-03-01T18:18:46.543Z,99968.53
2023-03-01T18:21:13.952Z,99946.63
2023-03-01T18:23:40.633Z,99961.50
2023-03-01T18:26:09.623Z,99952.88
2023-03-01T18:28:37.382Z,99959.94
2023-03-01T18:31:08.468Z,99949.75
2023-03-01T18:33:35.277Z,99959.16
2023-03-01T18:36:02.290Z,99946.25
2023-03-01T18:38:29.626Z,99950.53
2023-03-01T18:40:56.505Z,99931.78
2023-03-01T18:43:23.715Z,99947.41
2023-03-01T18:45:56.693Z,99934.91
2023-03-01T18:48:24.187Z,99950.94
2023-03-01T18:50:50.870Z,99959.53
2023-03-01T18:53:17.537Z,99949.75
2023-03-01T18:55:46.989Z,99944.66
2023-03-01T18:58:13.493Z,99942.72
2023-03-01T19:00:40.030Z,99945.84
2023-03-01T19:03:06.804Z,99916.47
2023-03-01T19:05:33.356Z,99928.63
2023-03-01T19:07:59.932Z,99955.97
2023-03-01T19:10:26.428Z,99949.34
2023-03-01T19:12:52.901Z,99959.09
2023-03-01T19:15:23.178Z,99938.34
2023-03-01T19:17:49.762Z,99953.63
2023-03-01T19:20:16.540Z,99954.38
2023-03-01T19:22:43.091Z,99945.78
2023-03-01T19:25:10.026Z,99952.03
2023-03-01T19:27:36.764Z,99952.00
2023-03-01T19:30:03.715Z,99944.56
2023-03-01T19:32:30.248Z,99953.19
2023-03-01T19:34:57.206Z,99944.19
2023-03-01T19:37:24.028Z,99941.47
2023-03-01T19:39:50.784Z,99938.69
2023-03-01T19:42:17.755Z,99949.63
2023-03-01T19:44:44.478Z,99916.75
2023-03-01T19:47:12.248Z,99944.16
2023-03-01T19:49:38.904Z,99939.47
2023-03-01T19:52:05.461Z,99933.59
2023-03-01T19:54:33.209Z,99937.84
2023-03-01T19:57:00.751Z,99936.69
2023-03-01T19:59:28.450Z,99935.50
2023-03-01T20:01:55.955Z,99940.97
2023-03-01T20:04:22.706Z,99914.34
2023-03-01T20:06:49.656Z,99935.09
2023-03-01T20:09:21.921Z,99921.75
2023-03-01T20:11:49.288Z,99914.72
2023-03-01T20:14:16.067Z,99942.91
2023-03-01T20:16:42.622Z,99939.34
2023-03-01T20:19:09.415Z,99942.84
2023-03-01T20:21:36.122Z,99934.25
2023-03-01T20:24:02.681Z,99941.69
2023-03-01T20:26:30.683Z,99951.78
2023-03-01T20:28:57.356Z,99942.03
2023-03-01T20:31:29.207Z,99939.31
2023-03-01T20:33:58.592Z,99938.88
2023-03-01T20:36:25.501Z,99952.16
2023-03-01T20:38:53.393Z,99907.09
2023-03-01T20:41:20.312Z,99932.56
2023-03-01T20:43:54.770Z,99940.31
2023-03-01T20:46:23.224Z,99947.78
2023-03-01T20:48:53.546Z,99934.94
2023-03-01T20:51:20.194Z,99940.75
2023-03-01T20:53:46.897Z,99938.31
2023-03-01T20:56:15.158Z,99935.97
2023-03-01T20:58:42.174Z,99936.31
2023-03-01T21:01:13.619Z,99929.94
2023-03-01T21:03:41.366Z,99932.66
2023-03-01T21:06:07.955Z,99949.84
2023-03-01T21:08:35.168Z,99951.41
2023-03-01T21:11:02.410Z,99945.50
2023-03-01T21:13:29.393Z,99942.34
2023-03-01T21:15:58.251Z,99940.78
2023-03-01T21:18:29.738Z,99929.75
2023-03-01T21:21:00.590Z,99941.88
2023-03-01T21:23:29.190Z,99945.34
2023-03-01T21:26:04.548Z,99929.34
2023-03-01T21:28:33.260Z,99940.66
2023-03-01T21:31:23.925Z,99949.16
2023-03-01T21:33:52.810Z,99942.09
2023-03-01T21:36:20.350Z,99947.13
2023-03-01T21:38:48.620Z,99946.72
2023-03-01T21:41:21.407Z,99945.47
2023-03-01T21:43:49.320Z,99925.97
2023-03-01T21:46:18.354Z,99934.53
2023-03-01T21:48:46.006Z,99924.75
2023-03-01T21:51:15.043Z,99926.59
2023-03-01T21:53:41.664Z,99933.63
2023-03-01T21:56:09.769Z,99917.22
2023-03-01T21:58:36.409Z,99923.50
2023-03-01T22:01:11.454Z,99910.16
2023-03-01T22:03:45.227Z,99917.94
2023-03-01T22:06:19.142Z,99926.13
2023-03-01T22:08:50.211Z,99928.78
2023-03-01T22:11:20.070Z,99930.38
2023-03-01T22:13:49.461Z,99912.31
2023-03-01T22:16:16.812Z,99928.34
2023-03-01T22:18:43.370Z,99911.47
2023-03-01T22:21:11.088Z,99913.13
2023-03-01T22:23:39.067Z,99891.84
2023-03-01T22:26:06.345Z,99920.78
2023-03-01T22:28:33.089Z,99919.53
2023-03-01T22:31:03.906Z,99910.59
2023-03-01T22:33:30.515Z,99883.06
2023-03-01T22:35:57.006Z,99899.59
2023-03-01T22:38:23.600Z,99885.41
2023-03-01T22:41:00.726Z,99893.31
2023-03-01T22:43:28.171Z,99890.16
2023-03-01T22:45:55.237Z,99889.31
2023-03-01T22:48:21.958Z,99878.75
2023-03-01T22:50:49.009Z,99890.47
2023-03-01T22:53:15.680Z,99872.88
2023-03-01T22:55:42.822Z,99883.72
2023-03-01T22:58:09.544Z,99886.81
2023-03-01T23:00:36.340Z,99885.22
2023-03-01T23:03:03.221Z,99892.22
2023-03-01T23:05:29.853Z,99872.69
2023-03-01T23:07:56.408Z,99885.88
2023-03-01T23:10:23.057Z,99867.47
2023-03-01T23:12:49.627Z,99879.97
2023-03-01T23:15:16.298Z,99859.47
2023-03-01T23:17:42.895Z,99866.19
2023-03-01T23:20:10.408Z,99874.44
2023-03-01T23:22:38.152Z,99874.41
2023-03-01T23:25:05.479Z,99875.53
2023-03-01T23:27:32.040Z,99875.16
2023-03-01T23:29:59.313Z,99881.06
2023-03-01T23:32:25.850Z,99871.72
2023-03-01T23:34:52.517Z,99872.38
2023-03-01T23:37:19.057Z,99879.84
2023-03-01T23:39:45.760Z,99878.19
2023-03-01T23:42:12.262Z,99880.91
2023-03-01T23:44:40.837Z,99880.94
2023-03-01T23:47:07.341Z,99871.84
2023-03-01T23:49:33.929Z,99881.66
2023-03-01T23:52:01.473Z,99843.22
2023-03-01T23:54:28.026Z,99853.81
2023-03-01T23:56:54.632Z,99876.53
2023-03-01T23:59:23.338Z,99872.25
